sensor_id;sensor_type;location;lat;lon;timestamp;temperature;humidity
38183;DHT22;23991;52.430;10.586;2023-06-10T00:02:07;20.80;54.00
38183;DHT22;23991;52.430;10.586;2023-06-10T00:04:33;20.70;54.20
38183;DHT22;23991;52.430;10.586;2023-06-10T00:06:59;20.60;54.60
38183;DHT22;23991;52.430;10.586;2023-06-10T00:09:24;20.60;54.80
38183;DHT22;23991;52.430;10.586;2023-06-10T00:11:51;20.50;55.20
38183;DHT22;23991;52.430;10.586;2023-06-10T00:14:16;20.40;55.50
38183;DHT22;23991;52.430;10.586;2023-06-10T00:16:42;20.40;55.40
38183;DHT22;23991;52.430;10.586;2023-06-10T00:19:10;20.30;55.80
38183;DHT22;23991;52.430;10.586;2023-06-10T00:21:39;20.30;56.10
38183;DHT22;23991;52.430;10.586;2023-06-10T00:24:10;20.30;56.40
38183;DHT22;23991;52.430;10.586;2023-06-10T00:26:40;20.20;57.00
38183;DHT22;23991;52.430;10.586;2023-06-10T00:29:06;20.20;57.10
38183;DHT22;23991;52.430;10.586;2023-06-10T00:31:33;20.10;57.50
38183;DHT22;23991;52.430;10.586;2023-06-10T00:33:59;20.00;57.80
38183;DHT22;23991;52.430;10.586;2023-06-10T00:36:25;19.90;58.10
38183;DHT22;23991;52.430;10.586;2023-06-10T00:38:50;19.90;58.20
38183;DHT22;23991;52.430;10.586;2023-06-10T00:41:16;19.80;58.60
38183;DHT22;23991;52.430;10.586;2023-06-10T00:43:41;19.80;58.80
38183;DHT22;23991;52.430;10.586;2023-06-10T00:46:07;19.80;59.10
38183;DHT22;23991;52.430;10.586;2023-06-10T00:48:34;19.80;58.90
38183;DHT22;23991;52.430;10.586;2023-06-10T00:51:00;19.80;58.90
38183;DHT22;23991;52.430;10.586;2023-06-10T00:53:26;19.60;59.40
38183;DHT22;23991;52.430;10.586;2023-06-10T00:55:52;19.50;59.70
38183;DHT22;23991;52.430;10.586;2023-06-10T00:58:18;19.50;60.10
38183;DHT22;23991;52.430;10.586;2023-06-10T01:00:43;19.40;60.10
38183;DHT22;23991;52.430;10.586;2023-06-10T01:03:10;19.30;60.30
38183;DHT22;23991;52.430;10.586;2023-06-10T01:05:38;19.30;60.50
38183;DHT22;23991;52.430;10.586;2023-06-10T01:10:57;19.30;60.70
38183;DHT22;23991;52.430;10.586;2023-06-10T01:13:25;19.30;60.80
38183;DHT22;23991;52.430;10.586;2023-06-10T01:15:55;19.30;60.80
38183;DHT22;23991;52.430;10.586;2023-06-10T01:18:21;19.20;61.00
38183;DHT22;23991;52.430;10.586;2023-06-10T01:20:47;19.20;61.00
38183;DHT22;23991;52.430;10.586;2023-06-10T01:23:14;19.10;61.20
38183;DHT22;23991;52.430;10.586;2023-06-10T01:25:42;19.00;61.60
38183;DHT22;23991;52.430;10.586;2023-06-10T01:28:14;18.90;61.50
38183;DHT22;23991;52.430;10.586;2023-06-10T01:33:39;18.80;62.20
38183;DHT22;23991;52.430;10.586;2023-06-10T01:36:06;18.70;62.40
38183;DHT22;23991;52.430;10.586;2023-06-10T01:38:36;18.70;62.40
38183;DHT22;23991;52.430;10.586;2023-06-10T01:41:05;18.70;62.50
38183;DHT22;23991;52.430;10.586;2023-06-10T01:43:33;18.60;62.50
38183;DHT22;23991;52.430;10.586;2023-06-10T01:46:00;18.60;62.50
38183;DHT22;23991;52.430;10.586;2023-06-10T01:48:25;18.50;62.70
38183;DHT22;23991;52.430;10.586;2023-06-10T01:50:51;18.50;62.70
38183;DHT22;23991;52.430;10.586;2023-06-10T01:53:16;18.50;62.70
38183;DHT22;23991;52.430;10.586;2023-06-10T01:55:42;18.40;63.10
38183;DHT22;23991;52.430;10.586;2023-06-10T01:58:07;18.30;63.30
38183;DHT22;23991;52.430;10.586;2023-06-10T02:00:33;18.30;63.40
38183;DHT22;23991;52.430;10.586;2023-06-10T02:02:58;18.30;63.40
38183;DHT22;23991;52.430;10.586;2023-06-10T02:05:26;18.30;63.70
38183;DHT22;23991;52.430;10.586;2023-06-10T02:07:52;18.20;63.90
38183;DHT22;23991;52.430;10.586;2023-06-10T02:10:17;18.20;63.90
38183;DHT22;23991;52.430;10.586;2023-06-10T02:12:43;18.10;63.90
38183;DHT22;23991;52.430;10.586;2023-06-10T02:15:08;18.10;64.00
38183;DHT22;23991;52.430;10.586;2023-06-10T02:17:33;18.00;64.20
38183;DHT22;23991;52.430;10.586;2023-06-10T02:19:59;18.00;64.10
38183;DHT22;23991;52.430;10.586;2023-06-10T02:22:25;18.00;64.20
38183;DHT22;23991;52.430;10.586;2023-06-10T02:24:51;17.90;64.20
38183;DHT22;23991;52.430;10.586;2023-06-10T02:27:18;17.90;64.50
38183;DHT22;23991;52.430;10.586;2023-06-10T02:29:43;17.80;64.60
38183;DHT22;23991;52.430;10.586;2023-06-10T02:32:09;17.80;64.40
38183;DHT22;23991;52.430;10.586;2023-06-10T02:34:35;17.80;64.60
38183;DHT22;23991;52.430;10.586;2023-06-10T02:37:02;17.80;64.60
38183;DHT22;23991;52.430;10.586;2023-06-10T02:39:27;17.80;64.70
38183;DHT22;23991;52.430;10.586;2023-06-10T02:41:53;17.70;64.90
38183;DHT22;23991;52.430;10.586;2023-06-10T02:44:19;17.70;65.00
38183;DHT22;23991;52.430;10.586;2023-06-10T02:46:44;17.70;65.10
38183;DHT22;23991;52.430;10.586;2023-06-10T02:49:11;17.60;65.40
38183;DHT22;23991;52.430;10.586;2023-06-10T02:51:36;17.50;65.60
38183;DHT22;23991;52.430;10.586;2023-06-10T02:54:02;17.50;65.70
38183;DHT22;23991;52.430;10.586;2023-06-10T02:56:28;17.40;65.90
38183;DHT22;23991;52.430;10.586;2023-06-10T02:58:53;17.40;65.80
38183;DHT22;23991;52.430;10.586;2023-06-10T03:01:19;17.30;65.70
38183;DHT22;23991;52.430;10.586;2023-06-10T03:03:45;17.30;65.70
38183;DHT22;23991;52.430;10.586;2023-06-10T03:06:12;17.30;66.00
38183;DHT22;23991;52.430;10.586;2023-06-10T03:08:38;17.30;66.00
38183;DHT22;23991;52.430;10.586;2023-06-10T03:11:07;17.20;66.60
38183;DHT22;23991;52.430;10.586;2023-06-10T03:13:33;17.10;66.40
38183;DHT22;23991;52.430;10.586;2023-06-10T03:15:58;17.10;66.30
38183;DHT22;23991;52.430;10.586;2023-06-10T03:18:27;17.20;65.90
38183;DHT22;23991;52.430;10.586;2023-06-10T03:20:54;17.20;65.90
38183;DHT22;23991;52.430;10.586;2023-06-10T03:23:20;17.20;65.90
38183;DHT22;23991;52.430;10.586;2023-06-10T03:25:46;17.30;65.80
38183;DHT22;23991;52.430;10.586;2023-06-10T03:28:11;17.30;65.80
38183;DHT22;23991;52.430;10.586;2023-06-10T03:30:37;17.30;65.90
38183;DHT22;23991;52.430;10.586;2023-06-10T03:33:02;17.30;65.80
38183;DHT22;23991;52.430;10.586;2023-06-10T03:35:29;17.30;65.60
38183;DHT22;23991;52.430;10.586;2023-06-10T03:37:54;17.30;65.80
38183;DHT22;23991;52.430;10.586;2023-06-10T03:40:20;17.30;65.70
38183;DHT22;23991;52.430;10.586;2023-06-10T03:42:45;17.40;65.50
38183;DHT22;23991;52.430;10.586;2023-06-10T03:45:11;17.40;65.70
38183;DHT22;23991;52.430;10.586;2023-06-10T03:47:37;17.40;65.70
38183;DHT22;23991;52.430;10.586;2023-06-10T03:50:04;17.50;65.50
38183;DHT22;23991;52.430;10.586;2023-06-10T03:52:30;17.40;65.60
38183;DHT22;23991;52.430;10.586;2023-06-10T03:54:55;17.50;65.40
38183;DHT22;23991;52.430;10.586;2023-06-10T03:57:21;17.50;65.20
38183;DHT22;23991;52.430;10.586;2023-06-10T03:59:46;17.50;65.60
38183;DHT22;23991;52.430;10.586;2023-06-10T04:02:12;17.60;65.40
38183;DHT22;23991;52.430;10.586;2023-06-10T04:04:37;17.70;65.20
38183;DHT22;23991;52.430;10.586;2023-06-10T04:07:04;17.70;65.20
38183;DHT22;23991;52.430;10.586;2023-06-10T04:09:30;17.80;64.90
38183;DHT22;23991;52.430;10.586;2023-06-10T04:11:55;17.80;64.80
38183;DHT22;23991;52.430;10.586;2023-06-10T04:14:21;17.80;64.40
38183;DHT22;23991;52.430;10.586;2023-06-10T04:16:46;17.80;64.30
38183;DHT22;23991;52.430;10.586;2023-06-10T04:19:12;17.80;64.70
38183;DHT22;23991;52.430;10.586;2023-06-10T04:21:38;17.80;64.50
38183;DHT22;23991;52.430;10.586;2023-06-10T04:24:03;17.90;64.40
38183;DHT22;23991;52.430;10.586;2023-06-10T04:26:29;18.00;64.00
38183;DHT22;23991;52.430;10.586;2023-06-10T04:28:54;18.10;63.70
38183;DHT22;23991;52.430;10.586;2023-06-10T04:31:20;18.10;63.60
38183;DHT22;23991;52.430;10.586;2023-06-10T04:33:46;18.10;64.00
38183;DHT22;23991;52.430;10.586;2023-06-10T04:36:11;18.20;63.50
38183;DHT22;23991;52.430;10.586;2023-06-10T04:38:37;18.20;63.70
38183;DHT22;23991;52.430;10.586;2023-06-10T04:41:02;18.00;64.10
38183;DHT22;23991;52.430;10.586;2023-06-10T04:43:29;18.10;64.10
38183;DHT22;23991;52.430;10.586;2023-06-10T04:45:55;18.30;63.70
38183;DHT22;23991;52.430;10.586;2023-06-10T04:48:21;18.40;63.40
38183;DHT22;23991;52.430;10.586;2023-06-10T04:50:49;18.40;63.10
38183;DHT22;23991;52.430;10.586;2023-06-10T04:53:15;18.40;63.00
38183;DHT22;23991;52.430;10.586;2023-06-10T04:55:42;18.30;63.50
38183;DHT22;23991;52.430;10.586;2023-06-10T04:58:07;18.40;63.40
38183;DHT22;23991;52.430;10.586;2023-06-10T05:00:33;18.50;63.10
38183;DHT22;23991;52.430;10.586;2023-06-10T05:02:58;18.80;62.70
38183;DHT22;23991;52.430;10.586;2023-06-10T05:05:24;19.00;62.10
38183;DHT22;23991;52.430;10.586;2023-06-10T05:07:49;19.10;61.70
38183;DHT22;23991;52.430;10.586;2023-06-10T05:10:15;19.20;61.30
38183;DHT22;23991;52.430;10.586;2023-06-10T05:12:41;19.30;61.00
38183;DHT22;23991;52.430;10.586;2023-06-10T05:15:07;19.40;60.60
38183;DHT22;23991;52.430;10.586;2023-06-10T05:17:33;19.50;60.50
38183;DHT22;23991;52.430;10.586;2023-06-10T05:20:00;19.60;60.40
38183;DHT22;23991;52.430;10.586;2023-06-10T05:22:26;19.70;60.00
38183;DHT22;23991;52.430;10.586;2023-06-10T05:24:52;19.80;59.20
38183;DHT22;23991;52.430;10.586;2023-06-10T05:27:19;19.80;59.50
38183;DHT22;23991;52.430;10.586;2023-06-10T05:29:45;19.90;59.40
38183;DHT22;23991;52.430;10.586;2023-06-10T05:32:11;20.10;58.90
38183;DHT22;23991;52.430;10.586;2023-06-10T05:34:37;20.30;58.40
38183;DHT22;23991;52.430;10.586;2023-06-10T05:37:03;20.30;58.20
38183;DHT22;23991;52.430;10.586;2023-06-10T05:39:28;20.30;57.90
38183;DHT22;23991;52.430;10.586;2023-06-10T05:41:54;20.40;57.60
38183;DHT22;23991;52.430;10.586;2023-06-10T05:44:19;20.50;57.60
38183;DHT22;23991;52.430;10.586;2023-06-10T05:46:45;20.50;58.00
38183;DHT22;23991;52.430;10.586;2023-06-10T05:49:11;20.70;58.00
38183;DHT22;23991;52.430;10.586;2023-06-10T05:51:36;20.70;56.80
38183;DHT22;23991;52.430;10.586;2023-06-10T05:54:02;20.50;57.80
38183;DHT22;23991;52.430;10.586;2023-06-10T05:56:28;20.50;58.20
38183;DHT22;23991;52.430;10.586;2023-06-10T05:58:54;20.80;57.60
38183;DHT22;23991;52.430;10.586;2023-06-10T06:01:22;20.80;57.00
38183;DHT22;23991;52.430;10.586;2023-06-10T06:03:48;21.00;56.90
38183;DHT22;23991;52.430;10.586;2023-06-10T06:06:14;21.20;56.30
38183;DHT22;23991;52.430;10.586;2023-06-10T06:08:39;21.30;56.00
38183;DHT22;23991;52.430;10.586;2023-06-10T06:11:05;21.30;55.90
38183;DHT22;23991;52.430;10.586;2023-06-10T06:13:30;21.50;55.50
38183;DHT22;23991;52.430;10.586;2023-06-10T06:15:59;21.70;54.80
38183;DHT22;23991;52.430;10.586;2023-06-10T06:18:24;21.90;54.40
38183;DHT22;23991;52.430;10.586;2023-06-10T06:20:50;22.20;54.10
38183;DHT22;23991;52.430;10.586;2023-06-10T06:23:16;22.30;53.60
38183;DHT22;23991;52.430;10.586;2023-06-10T06:25:41;22.50;53.20
38183;DHT22;23991;52.430;10.586;2023-06-10T06:28:07;22.50;53.00
38183;DHT22;23991;52.430;10.586;2023-06-10T06:30:34;22.70;52.20
38183;DHT22;23991;52.430;10.586;2023-06-10T06:33:00;22.70;52.50
38183;DHT22;23991;52.430;10.586;2023-06-10T06:35:26;22.80;52.20
38183;DHT22;23991;52.430;10.586;2023-06-10T06:37:51;22.80;52.00
38183;DHT22;23991;52.430;10.586;2023-06-10T06:40:17;23.10;52.00
38183;DHT22;23991;52.430;10.586;2023-06-10T06:42:42;23.20;51.10
38183;DHT22;23991;52.430;10.586;2023-06-10T06:45:08;23.30;51.30
38183;DHT22;23991;52.430;10.586;2023-06-10T06:47:34;23.20;51.30
38183;DHT22;23991;52.430;10.586;2023-06-10T06:49:59;23.50;50.50
38183;DHT22;23991;52.430;10.586;2023-06-10T06:52:25;23.70;50.10
38183;DHT22;23991;52.430;10.586;2023-06-10T06:54:50;24.00;49.60
38183;DHT22;23991;52.430;10.586;2023-06-10T06:57:16;24.20;49.30
38183;DHT22;23991;52.430;10.586;2023-06-10T06:59:41;24.30;49.00
38183;DHT22;23991;52.430;10.586;2023-06-10T07:02:07;24.40;48.70
38183;DHT22;23991;52.430;10.586;2023-06-10T07:04:33;24.50;48.40
38183;DHT22;23991;52.430;10.586;2023-06-10T07:06:58;24.60;47.60
38183;DHT22;23991;52.430;10.586;2023-06-10T07:09:24;24.40;48.30
38183;DHT22;23991;52.430;10.586;2023-06-10T07:11:49;24.80;47.80
38183;DHT22;23991;52.430;10.586;2023-06-10T07:14:15;25.00;47.80
38183;DHT22;23991;52.430;10.586;2023-06-10T07:16:40;25.40;46.60
38183;DHT22;23991;52.430;10.586;2023-06-10T07:19:06;25.70;46.20
38183;DHT22;23991;52.430;10.586;2023-06-10T07:21:31;26.00;45.50
38183;DHT22;23991;52.430;10.586;2023-06-10T07:23:58;26.10;45.30
38183;DHT22;23991;52.430;10.586;2023-06-10T07:26:23;26.20;45.00
38183;DHT22;23991;52.430;10.586;2023-06-10T07:28:49;26.50;44.40
38183;DHT22;23991;52.430;10.586;2023-06-10T07:31:15;26.90;43.50
38183;DHT22;23991;52.430;10.586;2023-06-10T07:33:40;27.00;43.60
38183;DHT22;23991;52.430;10.586;2023-06-10T07:36:07;27.40;42.60
38183;DHT22;23991;52.430;10.586;2023-06-10T07:38:32;27.80;41.90
38183;DHT22;23991;52.430;10.586;2023-06-10T07:40:58;27.60;41.40
38183;DHT22;23991;52.430;10.586;2023-06-10T07:43:24;27.50;42.50
38183;DHT22;23991;52.430;10.586;2023-06-10T07:45:50;27.70;41.30
38183;DHT22;23991;52.430;10.586;2023-06-10T07:48:15;27.70;41.70
38183;DHT22;23991;52.430;10.586;2023-06-10T07:50:41;28.20;41.20
38183;DHT22;23991;52.430;10.586;2023-06-10T07:53:07;28.40;41.10
38183;DHT22;23991;52.430;10.586;2023-06-10T07:55:32;28.90;40.40
38183;DHT22;23991;52.430;10.586;2023-06-10T07:57:58;29.20;40.00
38183;DHT22;23991;52.430;10.586;2023-06-10T08:00:23;29.20;39.60
38183;DHT22;23991;52.430;10.586;2023-06-10T08:02:49;29.30;39.00
38183;DHT22;23991;52.430;10.586;2023-06-10T08:05:16;29.70;38.50
38183;DHT22;23991;52.430;10.586;2023-06-10T08:07:42;29.60;39.10
38183;DHT22;23991;52.430;10.586;2023-06-10T08:10:08;30.10;38.80
38183;DHT22;23991;52.430;10.586;2023-06-10T08:12:34;30.50;37.80
38183;DHT22;23991;52.430;10.586;2023-06-10T08:15:00;30.70;37.00
38183;DHT22;23991;52.430;10.586;2023-06-10T08:17:26;30.60;37.20
38183;DHT22;23991;52.430;10.586;2023-06-10T08:19:51;31.10;36.60
38183;DHT22;23991;52.430;10.586;2023-06-10T08:22:17;31.10;36.30
38183;DHT22;23991;52.430;10.586;2023-06-10T08:24:43;31.00;37.10
38183;DHT22;23991;52.430;10.586;2023-06-10T08:27:08;31.60;35.70
38183;DHT22;23991;52.430;10.586;2023-06-10T08:29:34;31.70;35.80
38183;DHT22;23991;52.430;10.586;2023-06-10T08:32:00;32.00;35.00
38183;DHT22;23991;52.430;10.586;2023-06-10T08:34:25;32.10;34.70
38183;DHT22;23991;52.430;10.586;2023-06-10T08:36:51;32.10;34.40
38183;DHT22;23991;52.430;10.586;2023-06-10T08:39:19;31.70;35.10
38183;DHT22;23991;52.430;10.586;2023-06-10T08:44:42;32.80;34.30
38183;DHT22;23991;52.430;10.586;2023-06-10T08:47:14;32.90;33.40
38183;DHT22;23991;52.430;10.586;2023-06-10T08:49:46;33.10;33.50
38183;DHT22;23991;52.430;10.586;2023-06-10T08:52:17;32.30;34.40
38183;DHT22;23991;52.430;10.586;2023-06-10T08:57:13;33.10;34.00
38183;DHT22;23991;52.430;10.586;2023-06-10T08:59:39;33.50;32.80
38183;DHT22;23991;52.430;10.586;2023-06-10T09:02:05;33.90;33.00
38183;DHT22;23991;52.430;10.586;2023-06-10T09:04:32;34.00;33.00
38183;DHT22;23991;52.430;10.586;2023-06-10T09:06:59;33.90;32.20
38183;DHT22;23991;52.430;10.586;2023-06-10T09:09:27;34.00;33.00
38183;DHT22;23991;52.430;10.586;2023-06-10T09:11:53;34.30;32.50
38183;DHT22;23991;52.430;10.586;2023-06-10T09:14:19;34.70;32.30
38183;DHT22;23991;52.430;10.586;2023-06-10T09:16:44;35.10;31.30
38183;DHT22;23991;52.430;10.586;2023-06-10T09:19:12;35.30;31.00
38183;DHT22;23991;52.430;10.586;2023-06-10T09:21:38;35.50;30.70
38183;DHT22;23991;52.430;10.586;2023-06-10T09:24:05;35.60;30.70
38183;DHT22;23991;52.430;10.586;2023-06-10T09:26:30;35.60;30.80
38183;DHT22;23991;52.430;10.586;2023-06-10T09:29:04;35.90;30.10
38183;DHT22;23991;52.430;10.586;2023-06-10T09:31:30;36.40;29.70
38183;DHT22;23991;52.430;10.586;2023-06-10T09:34:08;36.50;29.30
38183;DHT22;23991;52.430;10.586;2023-06-10T09:36:35;36.80;29.00
38183;DHT22;23991;52.430;10.586;2023-06-10T09:39:01;37.00;28.40
38183;DHT22;23991;52.430;10.586;2023-06-10T09:41:40;37.30;28.40
38183;DHT22;23991;52.430;10.586;2023-06-10T09:44:19;37.40;28.10
38183;DHT22;23991;52.430;10.586;2023-06-10T09:46:47;37.60;27.70
38183;DHT22;23991;52.430;10.586;2023-06-10T09:49:13;37.50;27.90
38183;DHT22;23991;52.430;10.586;2023-06-10T09:51:52;37.90;27.70
38183;DHT22;23991;52.430;10.586;2023-06-10T09:54:18;38.00;27.90
38183;DHT22;23991;52.430;10.586;2023-06-10T09:56:47;38.40;27.40
38183;DHT22;23991;52.430;10.586;2023-06-10T09:59:16;38.60;27.20
38183;DHT22;23991;52.430;10.586;2023-06-10T10:01:41;38.60;27.30
38183;DHT22;23991;52.430;10.586;2023-06-10T10:04:07;38.50;27.00
38183;DHT22;23991;52.430;10.586;2023-06-10T10:06:33;38.80;26.40
38183;DHT22;23991;52.430;10.586;2023-06-10T10:08:59;39.10;26.30
38183;DHT22;23991;52.430;10.586;2023-06-10T10:11:25;39.20;25.80
38183;DHT22;23991;52.430;10.586;2023-06-10T10:13:53;39.30;25.90
38183;DHT22;23991;52.430;10.586;2023-06-10T10:16:29;39.40;26.00
38183;DHT22;23991;52.430;10.586;2023-06-10T10:18:56;39.10;26.30
38183;DHT22;23991;52.430;10.586;2023-06-10T10:21:26;39.30;26.10
38183;DHT22;23991;52.430;10.586;2023-06-10T10:24:12;39.40;26.00
38183;DHT22;23991;52.430;10.586;2023-06-10T10:26:39;39.40;25.90
38183;DHT22;23991;52.430;10.586;2023-06-10T10:29:22;39.90;25.40
38183;DHT22;23991;52.430;10.586;2023-06-10T10:31:51;40.10;25.50
38183;DHT22;23991;52.430;10.586;2023-06-10T10:34:24;40.10;25.00
38183;DHT22;23991;52.430;10.586;2023-06-10T10:36:51;40.10;24.60
38183;DHT22;23991;52.430;10.586;2023-06-10T10:39:17;40.40;24.70
38183;DHT22;23991;52.430;10.586;2023-06-10T10:41:43;40.50;24.50
38183;DHT22;23991;52.430;10.586;2023-06-10T10:44:09;40.10;24.50
38183;DHT22;23991;52.430;10.586;2023-06-10T10:46:51;39.80;24.80
38183;DHT22;23991;52.430;10.586;2023-06-10T10:49:18;40.00;25.30
38183;DHT22;23991;52.430;10.586;2023-06-10T10:52:04;39.90;25.00
38183;DHT22;23991;52.430;10.586;2023-06-10T10:54:34;40.60;24.40
38183;DHT22;23991;52.430;10.586;2023-06-10T11:02:34;41.00;24.10
38183;DHT22;23991;52.430;10.586;2023-06-10T11:05:01;41.00;24.10
38183;DHT22;23991;52.430;10.586;2023-06-10T11:07:30;41.00;24.20
38183;DHT22;23991;52.430;10.586;2023-06-10T11:10:08;41.20;23.20
38183;DHT22;23991;52.430;10.586;2023-06-10T11:15:09;41.40;23.80
38183;DHT22;23991;52.430;10.586;2023-06-10T11:17:35;41.50;23.90
38183;DHT22;23991;52.430;10.586;2023-06-10T11:20:00;41.40;23.80
38183;DHT22;23991;52.430;10.586;2023-06-10T11:22:26;41.50;23.30
38183;DHT22;23991;52.430;10.586;2023-06-10T11:24:51;41.50;24.20
38183;DHT22;23991;52.430;10.586;2023-06-10T11:27:21;41.60;23.30
38183;DHT22;23991;52.430;10.586;2023-06-10T11:29:58;41.80;23.30
38183;DHT22;23991;52.430;10.586;2023-06-10T11:32:29;42.00;23.40
38183;DHT22;23991;52.430;10.586;2023-06-10T11:34:56;41.90;23.20
38183;DHT22;23991;52.430;10.586;2023-06-10T11:37:21;41.60;23.20
38183;DHT22;23991;52.430;10.586;2023-06-10T11:39:51;41.80;23.40
38183;DHT22;23991;52.430;10.586;2023-06-10T11:42:16;42.10;23.20
38183;DHT22;23991;52.430;10.586;2023-06-10T11:44:48;42.10;22.60
38183;DHT22;23991;52.430;10.586;2023-06-10T11:47:18;42.00;22.80
38183;DHT22;23991;52.430;10.586;2023-06-10T11:49:44;42.10;22.70
38183;DHT22;23991;52.430;10.586;2023-06-10T11:52:10;42.20;22.30
38183;DHT22;23991;52.430;10.586;2023-06-10T11:54:36;42.20;22.50
38183;DHT22;23991;52.430;10.586;2023-06-10T11:57:02;42.50;22.00
38183;DHT22;23991;52.430;10.586;2023-06-10T11:59:33;42.30;21.90
38183;DHT22;23991;52.430;10.586;2023-06-10T12:02:05;42.30;22.30
38183;DHT22;23991;52.430;10.586;2023-06-10T12:04:30;42.30;22.60
38183;DHT22;23991;52.430;10.586;2023-06-10T12:06:56;42.30;22.10
38183;DHT22;23991;52.430;10.586;2023-06-10T12:09:31;42.30;22.30
38183;DHT22;23991;52.430;10.586;2023-06-10T12:14:57;42.60;22.20
38183;DHT22;23991;52.430;10.586;2023-06-10T12:19:58;42.50;22.30
38183;DHT22;23991;52.430;10.586;2023-06-10T12:22:25;42.60;22.40
38183;DHT22;23991;52.430;10.586;2023-06-10T12:24:59;42.80;21.90
38183;DHT22;23991;52.430;10.586;2023-06-10T12:27:32;42.80;22.00
38183;DHT22;23991;52.430;10.586;2023-06-10T12:29:59;42.90;22.20
38183;DHT22;23991;52.430;10.586;2023-06-10T12:32:42;42.90;22.70
38183;DHT22;23991;52.430;10.586;2023-06-10T12:35:12;43.00;22.20
38183;DHT22;23991;52.430;10.586;2023-06-10T12:37:42;43.00;22.20
38183;DHT22;23991;52.430;10.586;2023-06-10T12:40:08;43.00;21.80
38183;DHT22;23991;52.430;10.586;2023-06-10T12:42:38;43.10;21.80
38183;DHT22;23991;52.430;10.586;2023-06-10T12:45:08;43.10;21.70
38183;DHT22;23991;52.430;10.586;2023-06-10T12:47:44;43.20;22.00
38183;DHT22;23991;52.430;10.586;2023-06-10T12:50:10;43.00;22.10
38183;DHT22;23991;52.430;10.586;2023-06-10T12:52:37;43.10;22.10
38183;DHT22;23991;52.430;10.586;2023-06-10T12:55:05;43.00;21.90
38183;DHT22;23991;52.430;10.586;2023-06-10T12:57:31;43.00;21.40
38183;DHT22;23991;52.430;10.586;2023-06-10T12:59:57;43.10;22.00
38183;DHT22;23991;52.430;10.586;2023-06-10T13:02:28;43.10;21.70
38183;DHT22;23991;52.430;10.586;2023-06-10T13:04:54;43.10;21.60
38183;DHT22;23991;52.430;10.586;2023-06-10T13:07:22;43.30;21.50
38183;DHT22;23991;52.430;10.586;2023-06-10T13:09:51;43.30;21.60
38183;DHT22;23991;52.430;10.586;2023-06-10T13:12:17;43.40;21.60
38183;DHT22;23991;52.430;10.586;2023-06-10T13:14:46;43.40;21.50
38183;DHT22;23991;52.430;10.586;2023-06-10T13:17:15;43.40;21.00
38183;DHT22;23991;52.430;10.586;2023-06-10T13:19:40;43.40;21.00
38183;DHT22;23991;52.430;10.586;2023-06-10T13:22:06;43.50;21.00
38183;DHT22;23991;52.430;10.586;2023-06-10T13:24:31;43.40;21.30
38183;DHT22;23991;52.430;10.586;2023-06-10T13:26:57;43.50;21.20
38183;DHT22;23991;52.430;10.586;2023-06-10T13:29:23;43.50;21.20
38183;DHT22;23991;52.430;10.586;2023-06-10T13:31:48;43.40;21.50
38183;DHT22;23991;52.430;10.586;2023-06-10T13:34:17;43.50;21.20
38183;DHT22;23991;52.430;10.586;2023-06-10T13:36:42;43.50;21.40
38183;DHT22;23991;52.430;10.586;2023-06-10T13:39:08;43.60;21.10
38183;DHT22;23991;52.430;10.586;2023-06-10T13:41:33;43.60;20.90
38183;DHT22;23991;52.430;10.586;2023-06-10T13:43:59;43.20;21.30
38183;DHT22;23991;52.430;10.586;2023-06-10T13:46:24;43.40;21.20
38183;DHT22;23991;52.430;10.586;2023-06-10T13:48:51;43.10;21.50
38183;DHT22;23991;52.430;10.586;2023-06-10T13:51:17;43.00;21.60
38183;DHT22;23991;52.430;10.586;2023-06-10T13:53:42;43.10;21.70
38183;DHT22;23991;52.430;10.586;2023-06-10T13:56:08;43.00;21.50
38183;DHT22;23991;52.430;10.586;2023-06-10T13:58:33;43.00;22.10
38183;DHT22;23991;52.430;10.586;2023-06-10T14:01:04;42.80;21.50
38183;DHT22;23991;52.430;10.586;2023-06-10T14:03:33;41.20;23.00
38183;DHT22;23991;52.430;10.586;2023-06-10T14:05:58;41.00;23.40
38183;DHT22;23991;52.430;10.586;2023-06-10T14:08:24;41.60;23.00
38183;DHT22;23991;52.430;10.586;2023-06-10T14:10:50;41.90;22.40
38183;DHT22;23991;52.430;10.586;2023-06-10T14:13:18;42.20;22.40
38183;DHT22;23991;52.430;10.586;2023-06-10T14:15:44;42.30;22.40
38183;DHT22;23991;52.430;10.586;2023-06-10T14:18:09;42.60;21.80
38183;DHT22;23991;52.430;10.586;2023-06-10T14:20:35;42.60;21.50
38183;DHT22;23991;52.430;10.586;2023-06-10T14:23:06;42.70;21.30
38183;DHT22;23991;52.430;10.586;2023-06-10T14:25:32;42.90;21.00
38183;DHT22;23991;52.430;10.586;2023-06-10T14:27:57;42.80;21.50
38183;DHT22;23991;52.430;10.586;2023-06-10T14:30:26;42.60;21.80
38183;DHT22;23991;52.430;10.586;2023-06-10T14:32:52;42.70;21.60
38183;DHT22;23991;52.430;10.586;2023-06-10T14:35:17;42.60;21.50
38183;DHT22;23991;52.430;10.586;2023-06-10T14:37:43;42.70;21.40
38183;DHT22;23991;52.430;10.586;2023-06-10T14:40:08;42.70;20.90
38183;DHT22;23991;52.430;10.586;2023-06-10T14:42:43;42.90;21.30
38183;DHT22;23991;52.430;10.586;2023-06-10T14:45:12;42.60;21.50
38183;DHT22;23991;52.430;10.586;2023-06-10T14:47:37;42.90;21.10
38183;DHT22;23991;52.430;10.586;2023-06-10T14:50:06;42.60;20.80
38183;DHT22;23991;52.430;10.586;2023-06-10T14:52:37;42.50;21.30
38183;DHT22;23991;52.430;10.586;2023-06-10T14:55:02;42.60;20.80
38183;DHT22;23991;52.430;10.586;2023-06-10T14:57:31;42.70;21.10
38183;DHT22;23991;52.430;10.586;2023-06-10T14:59:56;42.60;21.30
38183;DHT22;23991;52.430;10.586;2023-06-10T15:02:22;42.80;21.30
38183;DHT22;23991;52.430;10.586;2023-06-10T15:04:48;42.60;21.10
38183;DHT22;23991;52.430;10.586;2023-06-10T15:07:13;42.70;21.10
38183;DHT22;23991;52.430;10.586;2023-06-10T15:09:43;42.60;21.30
38183;DHT22;23991;52.430;10.586;2023-06-10T15:12:09;42.30;22.30
38183;DHT22;23991;52.430;10.586;2023-06-10T15:14:36;42.10;22.40
38183;DHT22;23991;52.430;10.586;2023-06-10T15:17:01;42.10;22.30
38183;DHT22;23991;52.430;10.586;2023-06-10T15:19:27;41.80;22.20
38183;DHT22;23991;52.430;10.586;2023-06-10T15:21:53;41.60;22.00
38183;DHT22;23991;52.430;10.586;2023-06-10T15:24:18;41.60;21.90
38183;DHT22;23991;52.430;10.586;2023-06-10T15:26:44;41.60;22.00
38183;DHT22;23991;52.430;10.586;2023-06-10T15:29:10;41.60;22.00
38183;DHT22;23991;52.430;10.586;2023-06-10T15:31:35;41.40;22.00
38183;DHT22;23991;52.430;10.586;2023-06-10T15:34:04;41.10;22.20
38183;DHT22;23991;52.430;10.586;2023-06-10T15:36:30;41.20;21.20
38183;DHT22;23991;52.430;10.586;2023-06-10T15:39:03;40.90;21.00